sensor_id;sensor_type;location;lat;lon;timestamp;P1;durP1;ratioP1;P2;durP2;ratioP2
75021;SDS011;63583;49.976;20.182;2023-07-13T00:00:23;7.13;;;4.50;;
75021;SDS011;63583;49.976;20.182;2023-07-13T00:03:10;6.40;;;4.53;;
75021;SDS011;63583;49.976;20.182;2023-07-13T00:05:39;7.00;;;4.80;;
75021;SDS011;63583;49.976;20.182;2023-07-13T00:08:06;7.38;;;4.57;;
75021;SDS011;63583;49.976;20.182;2023-07-13T00:10:33;8.75;;;5.10;;
75021;SDS011;63583;49.976;20.182;2023-07-13T00:13:03;5.93;;;4.50;;
75021;SDS011;63583;49.976;20.182;2023-07-13T00:15:29;6.25;;;4.38;;
75021;SDS011;63583;49.976;20.182;2023-07-13T00:17:56;10.35;;;5.72;;
75021;SDS011;63583;49.976;20.182;2023-07-13T00:20:23;8.73;;;4.70;;
75021;SDS011;63583;49.976;20.182;2023-07-13T00:22:50;8.82;;;5.32;;
75021;SDS011;63583;49.976;20.182;2023-07-13T00:25:21;9.23;;;5.40;;
75021;SDS011;63583;49.976;20.182;2023-07-13T00:27:49;7.22;;;5.43;;
75021;SDS011;63583;49.976;20.182;2023-07-13T00:30:16;6.88;;;4.93;;
75021;SDS011;63583;49.976;20.182;2023-07-13T00:32:42;7.50;;;5.32;;
75021;SDS011;63583;49.976;20.182;2023-07-13T00:35:09;8.68;;;5.93;;
75021;SDS011;63583;49.976;20.182;2023-07-13T00:37:35;7.45;;;5.35;;
75021;SDS011;63583;49.976;20.182;2023-07-13T00:40:04;9.18;;;5.65;;
75021;SDS011;63583;49.976;20.182;2023-07-13T00:42:31;7.78;;;5.60;;
75021;SDS011;63583;49.976;20.182;2023-07-13T00:45:04;7.90;;;5.80;;
75021;SDS011;63583;49.976;20.182;2023-07-13T00:47:29;9.35;;;5.90;;
75021;SDS011;63583;49.976;20.182;2023-07-13T00:49:55;9.93;;;6.15;;
75021;SDS011;63583;49.976;20.182;2023-07-13T00:52:21;7.55;;;5.93;;
75021;SDS011;63583;49.976;20.182;2023-07-13T00:54:47;10.65;;;5.90;;
75021;SDS011;63583;49.976;20.182;2023-07-13T00:57:15;8.05;;;5.32;;
75021;SDS011;63583;49.976;20.182;2023-07-13T00:59:44;8.73;;;5.93;;
75021;SDS011;63583;49.976;20.182;2023-07-13T01:02:13;8.70;;;6.05;;
75021;SDS011;63583;49.976;20.182;2023-07-13T01:04:39;8.88;;;5.20;;
75021;SDS011;63583;49.976;20.182;2023-07-13T01:07:06;8.15;;;5.50;;
75021;SDS011;63583;49.976;20.182;2023-07-13T01:09:32;7.28;;;5.03;;
75021;SDS011;63583;49.976;20.182;2023-07-13T01:11:57;7.95;;;5.20;;
75021;SDS011;63583;49.976;20.182;2023-07-13T01:14:24;7.75;;;5.43;;
75021;SDS011;63583;49.976;20.182;2023-07-13T01:16:50;8.00;;;5.53;;
75021;SDS011;63583;49.976;20.182;2023-07-13T01:19:29;11.40;;;6.13;;
75021;SDS011;63583;49.976;20.182;2023-07-13T01:22:01;7.70;;;6.28;;
75021;SDS011;63583;49.976;20.182;2023-07-13T01:24:28;9.88;;;5.78;;
75021;SDS011;63583;49.976;20.182;2023-07-13T01:26:54;8.65;;;6.15;;
75021;SDS011;63583;49.976;20.182;2023-07-13T01:29:20;10.88;;;6.47;;
75021;SDS011;63583;49.976;20.182;2023-07-13T01:31:46;9.07;;;5.75;;
75021;SDS011;63583;49.976;20.182;2023-07-13T01:34:12;7.75;;;5.55;;
75021;SDS011;63583;49.976;20.182;2023-07-13T01:36:38;7.50;;;5.90;;
75021;SDS011;63583;49.976;20.182;2023-07-13T01:39:03;9.10;;;6.20;;
75021;SDS011;63583;49.976;20.182;2023-07-13T01:41:29;9.15;;;5.90;;
75021;SDS011;63583;49.976;20.182;2023-07-13T01:44:13;9.65;;;5.50;;
75021;SDS011;63583;49.976;20.182;2023-07-13T01:46:39;8.45;;;5.40;;
75021;SDS011;63583;49.976;20.182;2023-07-13T01:49:04;8.98;;;5.45;;
75021;SDS011;63583;49.976;20.182;2023-07-13T01:51:30;10.07;;;5.30;;
75021;SDS011;63583;49.976;20.182;2023-07-13T01:53:56;7.13;;;5.03;;
75021;SDS011;63583;49.976;20.182;2023-07-13T01:56:22;8.27;;;5.43;;
75021;SDS011;63583;49.976;20.182;2023-07-13T01:58:47;8.15;;;5.07;;
75021;SDS011;63583;49.976;20.182;2023-07-13T02:01:13;8.93;;;5.57;;
75021;SDS011;63583;49.976;20.182;2023-07-13T02:03:39;6.82;;;5.22;;
75021;SDS011;63583;49.976;20.182;2023-07-13T02:06:05;7.45;;;4.85;;
75021;SDS011;63583;49.976;20.182;2023-07-13T02:08:31;7.32;;;5.20;;
75021;SDS011;63583;49.976;20.182;2023-07-13T02:10:58;7.93;;;5.22;;
75021;SDS011;63583;49.976;20.182;2023-07-13T02:13:23;7.55;;;4.75;;
75021;SDS011;63583;49.976;20.182;2023-07-13T02:15:52;8.25;;;5.55;;
75021;SDS011;63583;49.976;20.182;2023-07-13T02:18:17;10.23;;;5.90;;
75021;SDS011;63583;49.976;20.182;2023-07-13T02:20:44;11.10;;;5.80;;
75021;SDS011;63583;49.976;20.182;2023-07-13T02:23:09;9.48;;;5.80;;
75021;SDS011;63583;49.976;20.182;2023-07-13T02:25:35;9.27;;;5.97;;
75021;SDS011;63583;49.976;20.182;2023-07-13T02:28:01;8.90;;;5.75;;
75021;SDS011;63583;49.976;20.182;2023-07-13T02:30:27;8.63;;;6.07;;
75021;SDS011;63583;49.976;20.182;2023-07-13T02:32:55;8.85;;;6.20;;
75021;SDS011;63583;49.976;20.182;2023-07-13T02:35:21;9.80;;;5.97;;
75021;SDS011;63583;49.976;20.182;2023-07-13T02:37:47;8.50;;;5.55;;
75021;SDS011;63583;49.976;20.182;2023-07-13T02:40:13;11.15;;;6.18;;
75021;SDS011;63583;49.976;20.182;2023-07-13T02:42:39;8.57;;;5.68;;
75021;SDS011;63583;49.976;20.182;2023-07-13T02:45:05;9.30;;;6.20;;
75021;SDS011;63583;49.976;20.182;2023-07-13T02:47:32;9.98;;;6.72;;
75021;SDS011;63583;49.976;20.182;2023-07-13T02:49:58;8.45;;;5.55;;
75021;SDS011;63583;49.976;20.182;2023-07-13T02:52:24;7.72;;;5.78;;
75021;SDS011;63583;49.976;20.182;2023-07-13T02:54:50;10.65;;;6.47;;
75021;SDS011;63583;49.976;20.182;2023-07-13T02:57:15;11.43;;;6.68;;
75021;SDS011;63583;49.976;20.182;2023-07-13T02:59:41;9.75;;;6.00;;
75021;SDS011;63583;49.976;20.182;2023-07-13T03:02:07;8.23;;;6.03;;
75021;SDS011;63583;49.976;20.182;2023-07-13T03:04:34;9.48;;;5.80;;
75021;SDS011;63583;49.976;20.182;2023-07-13T03:07:03;8.90;;;5.50;;
75021;SDS011;63583;49.976;20.182;2023-07-13T03:09:30;12.68;;;6.70;;
75021;SDS011;63583;49.976;20.182;2023-07-13T03:11:56;8.45;;;5.82;;
75021;SDS011;63583;49.976;20.182;2023-07-13T03:14:22;8.40;;;5.45;;
75021;SDS011;63583;49.976;20.182;2023-07-13T03:16:48;7.63;;;5.28;;
75021;SDS011;63583;49.976;20.182;2023-07-13T03:19:13;9.48;;;6.03;;
75021;SDS011;63583;49.976;20.182;2023-07-13T03:21:39;12.00;;;5.63;;
75021;SDS011;63583;49.976;20.182;2023-07-13T03:24:05;9.88;;;5.53;;
75021;SDS011;63583;49.976;20.182;2023-07-13T03:26:30;6.97;;;5.03;;
75021;SDS011;63583;49.976;20.182;2023-07-13T03:28:57;8.18;;;5.25;;
75021;SDS011;63583;49.976;20.182;2023-07-13T03:31:24;7.93;;;4.45;;
75021;SDS011;63583;49.976;20.182;2023-07-13T03:33:54;7.05;;;4.28;;
75021;SDS011;63583;49.976;20.182;2023-07-13T03:36:21;7.13;;;4.18;;
75021;SDS011;63583;49.976;20.182;2023-07-13T03:38:51;6.55;;;4.25;;
75021;SDS011;63583;49.976;20.182;2023-07-13T03:41:19;7.03;;;4.95;;
75021;SDS011;63583;49.976;20.182;2023-07-13T03:43:45;8.50;;;4.22;;
75021;SDS011;63583;49.976;20.182;2023-07-13T03:46:13;8.30;;;4.68;;
75021;SDS011;63583;49.976;20.182;2023-07-13T03:48:40;7.88;;;4.57;;
75021;SDS011;63583;49.976;20.182;2023-07-13T03:53:37;5.43;;;4.25;;
75021;SDS011;63583;49.976;20.182;2023-07-13T03:56:04;7.65;;;4.45;;
75021;SDS011;63583;49.976;20.182;2023-07-13T03:58:34;6.78;;;4.40;;
75021;SDS011;63583;49.976;20.182;2023-07-13T04:01:05;5.82;;;4.13;;
75021;SDS011;63583;49.976;20.182;2023-07-13T04:03:32;9.32;;;4.60;;
75021;SDS011;63583;49.976;20.182;2023-07-13T04:05:59;6.22;;;4.05;;
75021;SDS011;63583;49.976;20.182;2023-07-13T04:08:26;6.50;;;4.25;;
75021;SDS011;63583;49.976;20.182;2023-07-13T04:10:52;7.97;;;4.40;;
75021;SDS011;63583;49.976;20.182;2023-07-13T04:13:18;9.10;;;4.13;;
75021;SDS011;63583;49.976;20.182;2023-07-13T04:15:44;6.93;;;3.97;;
75021;SDS011;63583;49.976;20.182;2023-07-13T04:18:09;6.63;;;4.00;;
75021;SDS011;63583;49.976;20.182;2023-07-13T04:20:35;5.90;;;3.72;;
75021;SDS011;63583;49.976;20.182;2023-07-13T04:23:01;6.88;;;3.83;;
75021;SDS011;63583;49.976;20.182;2023-07-13T04:25:26;6.20;;;3.65;;
75021;SDS011;63583;49.976;20.182;2023-07-13T04:27:52;5.82;;;3.92;;
75021;SDS011;63583;49.976;20.182;2023-07-13T04:30:19;5.53;;;3.80;;
75021;SDS011;63583;49.976;20.182;2023-07-13T04:32:45;7.22;;;4.20;;
75021;SDS011;63583;49.976;20.182;2023-07-13T04:35:11;6.88;;;3.70;;
75021;SDS011;63583;49.976;20.182;2023-07-13T04:37:37;6.40;;;4.32;;
75021;SDS011;63583;49.976;20.182;2023-07-13T04:40:03;6.50;;;4.10;;
75021;SDS011;63583;49.976;20.182;2023-07-13T04:42:29;7.57;;;3.85;;
75021;SDS011;63583;49.976;20.182;2023-07-13T04:44:55;7.05;;;3.90;;
75021;SDS011;63583;49.976;20.182;2023-07-13T04:47:21;6.25;;;3.80;;
75021;SDS011;63583;49.976;20.182;2023-07-13T04:49:46;6.55;;;4.05;;
75021;SDS011;63583;49.976;20.182;2023-07-13T04:52:12;9.50;;;3.80;;
75021;SDS011;63583;49.976;20.182;2023-07-13T04:54:38;5.00;;;3.35;;
75021;SDS011;63583;49.976;20.182;2023-07-13T04:57:04;5.22;;;3.53;;
75021;SDS011;63583;49.976;20.182;2023-07-13T04:59:34;4.63;;;3.42;;
75021;SDS011;63583;49.976;20.182;2023-07-13T05:01:59;6.00;;;3.60;;
75021;SDS011;63583;49.976;20.182;2023-07-13T05:04:26;5.45;;;3.08;;
75021;SDS011;63583;49.976;20.182;2023-07-13T05:06:52;6.07;;;3.33;;
75021;SDS011;63583;49.976;20.182;2023-07-13T05:09:18;6.03;;;3.92;;
75021;SDS011;63583;49.976;20.182;2023-07-13T05:11:44;5.07;;;3.53;;
75021;SDS011;63583;49.976;20.182;2023-07-13T05:14:10;4.97;;;3.50;;
75021;SDS011;63583;49.976;20.182;2023-07-13T05:16:35;4.72;;;3.10;;
75021;SDS011;63583;49.976;20.182;2023-07-13T05:19:01;6.47;;;3.75;;
75021;SDS011;63583;49.976;20.182;2023-07-13T05:21:28;5.38;;;3.38;;
75021;SDS011;63583;49.976;20.182;2023-07-13T05:23:53;5.22;;;3.17;;
75021;SDS011;63583;49.976;20.182;2023-07-13T05:26:19;5.80;;;3.45;;
75021;SDS011;63583;49.976;20.182;2023-07-13T05:28:46;5.25;;;3.75;;
75021;SDS011;63583;49.976;20.182;2023-07-13T05:31:12;4.70;;;3.22;;
75021;SDS011;63583;49.976;20.182;2023-07-13T05:33:38;5.90;;;3.67;;
75021;SDS011;63583;49.976;20.182;2023-07-13T05:36:04;6.70;;;4.20;;
75021;SDS011;63583;49.976;20.182;2023-07-13T05:38:30;6.53;;;4.20;;
75021;SDS011;63583;49.976;20.182;2023-07-13T05:40:56;7.78;;;4.10;;
75021;SDS011;63583;49.976;20.182;2023-07-13T05:43:22;6.40;;;4.68;;
75021;SDS011;63583;49.976;20.182;2023-07-13T05:45:48;6.03;;;3.83;;
75021;SDS011;63583;49.976;20.182;2023-07-13T05:48:14;7.20;;;4.00;;
75021;SDS011;63583;49.976;20.182;2023-07-13T05:50:40;7.30;;;4.82;;
75021;SDS011;63583;49.976;20.182;2023-07-13T05:53:06;5.68;;;3.85;;
75021;SDS011;63583;49.976;20.182;2023-07-13T05:55:32;8.30;;;4.78;;
75021;SDS011;63583;49.976;20.182;2023-07-13T05:57:58;7.38;;;4.90;;
75021;SDS011;63583;49.976;20.182;2023-07-13T06:00:25;7.38;;;4.65;;
75021;SDS011;63583;49.976;20.182;2023-07-13T06:02:51;7.00;;;5.25;;
75021;SDS011;63583;49.976;20.182;2023-07-13T06:05:16;8.20;;;5.50;;
75021;SDS011;63583;49.976;20.182;2023-07-13T06:07:42;8.52;;;5.15;;
75021;SDS011;63583;49.976;20.182;2023-07-13T06:10:08;7.53;;;5.40;;
75021;SDS011;63583;49.976;20.182;2023-07-13T06:12:34;7.97;;;6.15;;
75021;SDS011;63583;49.976;20.182;2023-07-13T06:14:59;9.27;;;6.13;;
75021;SDS011;63583;49.976;20.182;2023-07-13T06:17:25;9.55;;;6.05;;
75021;SDS011;63583;49.976;20.182;2023-07-13T06:19:51;10.80;;;5.78;;
75021;SDS011;63583;49.976;20.182;2023-07-13T06:22:16;10.43;;;6.38;;
75021;SDS011;63583;49.976;20.182;2023-07-13T06:24:42;8.27;;;5.43;;
75021;SDS011;63583;49.976;20.182;2023-07-13T06:27:07;9.88;;;5.50;;
75021;SDS011;63583;49.976;20.182;2023-07-13T06:29:33;10.32;;;6.40;;
75021;SDS011;63583;49.976;20.182;2023-07-13T06:31:59;8.65;;;6.30;;
75021;SDS011;63583;49.976;20.182;2023-07-13T06:34:24;8.52;;;5.95;;
75021;SDS011;63583;49.976;20.182;2023-07-13T06:36:50;10.10;;;6.00;;
75021;SDS011;63583;49.976;20.182;2023-07-13T06:39:16;9.13;;;6.28;;
75021;SDS011;63583;49.976;20.182;2023-07-13T06:41:41;8.52;;;6.13;;
75021;SDS011;63583;49.976;20.182;2023-07-13T06:44:07;9.10;;;6.30;;
75021;SDS011;63583;49.976;20.182;2023-07-13T06:46:32;7.72;;;6.07;;
75021;SDS011;63583;49.976;20.182;2023-07-13T06:48:58;7.53;;;5.70;;
75021;SDS011;63583;49.976;20.182;2023-07-13T06:51:24;10.20;;;5.82;;
75021;SDS011;63583;49.976;20.182;2023-07-13T06:53:51;8.40;;;5.93;;
75021;SDS011;63583;49.976;20.182;2023-07-13T06:56:17;8.73;;;5.45;;
75021;SDS011;63583;49.976;20.182;2023-07-13T06:58:43;11.23;;;7.05;;
75021;SDS011;63583;49.976;20.182;2023-07-13T07:01:08;8.02;;;5.63;;
75021;SDS011;63583;49.976;20.182;2023-07-13T07:03:34;8.60;;;5.88;;
75021;SDS011;63583;49.976;20.182;2023-07-13T07:06:34;8.57;;;5.80;;
75021;SDS011;63583;49.976;20.182;2023-07-13T07:08:53;8.10;;;5.68;;
75021;SDS011;63583;49.976;20.182;2023-07-13T07:11:20;9.13;;;6.43;;
75021;SDS011;63583;49.976;20.182;2023-07-13T07:13:50;8.80;;;6.15;;
75021;SDS011;63583;49.976;20.182;2023-07-13T07:16:17;9.00;;;6.18;;
75021;SDS011;63583;49.976;20.182;2023-07-13T07:18:44;10.02;;;6.43;;
75021;SDS011;63583;49.976;20.182;2023-07-13T07:21:10;9.10;;;6.05;;
75021;SDS011;63583;49.976;20.182;2023-07-13T07:23:35;9.63;;;6.70;;
75021;SDS011;63583;49.976;20.182;2023-07-13T07:26:01;9.27;;;6.43;;
75021;SDS011;63583;49.976;20.182;2023-07-13T07:28:27;9.15;;;6.00;;
75021;SDS011;63583;49.976;20.182;2023-07-13T07:30:57;10.10;;;6.75;;
75021;SDS011;63583;49.976;20.182;2023-07-13T07:33:24;10.57;;;6.78;;
75021;SDS011;63583;49.976;20.182;2023-07-13T07:35:50;7.82;;;6.32;;
75021;SDS011;63583;49.976;20.182;2023-07-13T07:38:16;10.63;;;6.70;;
75021;SDS011;63583;49.976;20.182;2023-07-13T07:40:42;10.30;;;6.80;;
75021;SDS011;63583;49.976;20.182;2023-07-13T07:43:09;8.60;;;6.60;;
75021;SDS011;63583;49.976;20.182;2023-07-13T07:45:36;9.38;;;6.30;;
75021;SDS011;63583;49.976;20.182;2023-07-13T07:48:03;9.00;;;6.82;;
75021;SDS011;63583;49.976;20.182;2023-07-13T07:50:29;9.90;;;7.10;;
75021;SDS011;63583;49.976;20.182;2023-07-13T07:52:56;8.52;;;6.20;;
75021;SDS011;63583;49.976;20.182;2023-07-13T07:55:21;9.52;;;6.03;;
75021;SDS011;63583;49.976;20.182;2023-07-13T07:57:48;8.65;;;6.38;;
75021;SDS011;63583;49.976;20.182;2023-07-13T08:00:14;9.05;;;6.00;;
75021;SDS011;63583;49.976;20.182;2023-07-13T08:02:40;9.68;;;6.32;;
75021;SDS011;63583;49.976;20.182;2023-07-13T08:05:07;7.55;;;6.15;;
75021;SDS011;63583;49.976;20.182;2023-07-13T08:07:33;7.13;;;4.40;;
75021;SDS011;63583;49.976;20.182;2023-07-13T08:09:59;7.68;;;5.25;;
75021;SDS011;63583;49.976;20.182;2023-07-13T08:12:25;7.28;;;4.82;;
75021;SDS011;63583;49.976;20.182;2023-07-13T08:14:51;7.75;;;5.28;;
75021;SDS011;63583;49.976;20.182;2023-07-13T08:17:19;9.32;;;6.07;;
75021;SDS011;63583;49.976;20.182;2023-07-13T08:19:45;6.93;;;5.18;;
75021;SDS011;63583;49.976;20.182;2023-07-13T08:22:11;7.05;;;5.55;;
75021;SDS011;63583;49.976;20.182;2023-07-13T08:24:37;8.40;;;5.40;;
75021;SDS011;63583;49.976;20.182;2023-07-13T08:27:02;7.65;;;4.80;;
75021;SDS011;63583;49.976;20.182;2023-07-13T08:29:28;7.15;;;5.05;;
75021;SDS011;63583;49.976;20.182;2023-07-13T08:31:57;8.45;;;4.80;;
75021;SDS011;63583;49.976;20.182;2023-07-13T08:34:23;8.52;;;5.47;;
75021;SDS011;63583;49.976;20.182;2023-07-13T08:36:48;6.97;;;4.72;;
75021;SDS011;63583;49.976;20.182;2023-07-13T08:39:14;6.95;;;4.68;;
75021;SDS011;63583;49.976;20.182;2023-07-13T08:41:40;9.75;;;4.65;;
75021;SDS011;63583;49.976;20.182;2023-07-13T08:44:06;7.50;;;4.95;;
75021;SDS011;63583;49.976;20.182;2023-07-13T08:46:44;7.63;;;5.00;;
75021;SDS011;63583;49.976;20.182;2023-07-13T08:49:18;6.75;;;5.18;;
75021;SDS011;63583;49.976;20.182;2023-07-13T08:51:53;6.30;;;4.28;;
75021;SDS011;63583;49.976;20.182;2023-07-13T08:54:34;6.70;;;4.35;;
75021;SDS011;63583;49.976;20.182;2023-07-13T08:57:15;5.50;;;4.20;;
75021;SDS011;63583;49.976;20.182;2023-07-13T08:59:44;5.70;;;3.92;;
75021;SDS011;63583;49.976;20.182;2023-07-13T09:02:20;7.47;;;4.25;;
75021;SDS011;63583;49.976;20.182;2023-07-13T09:07:45;5.10;;;3.50;;
75021;SDS011;63583;49.976;20.182;2023-07-13T09:10:30;5.00;;;4.03;;
75021;SDS011;63583;49.976;20.182;2023-07-13T09:13:03;5.45;;;3.90;;
75021;SDS011;63583;49.976;20.182;2023-07-13T09:15:41;5.72;;;3.38;;
75021;SDS011;63583;49.976;20.182;2023-07-13T09:18:29;4.45;;;3.55;;
75021;SDS011;63583;49.976;20.182;2023-07-13T09:23:30;4.22;;;3.05;;
75021;SDS011;63583;49.976;20.182;2023-07-13T09:26:12;4.57;;;2.78;;
75021;SDS011;63583;49.976;20.182;2023-07-13T09:28:42;9.40;;;3.22;;
75021;SDS011;63583;49.976;20.182;2023-07-13T09:31:26;4.35;;;2.85;;
75021;SDS011;63583;49.976;20.182;2023-07-13T09:33:57;3.83;;;2.70;;
75021;SDS011;63583;49.976;20.182;2023-07-13T09:36:24;4.47;;;2.97;;
75021;SDS011;63583;49.976;20.182;2023-07-13T09:45:08;3.90;;;2.83;;
75021;SDS011;63583;49.976;20.182;2023-07-13T09:47:23;5.15;;;2.75;;
75021;SDS011;63583;49.976;20.182;2023-07-13T09:49:55;3.85;;;2.75;;
75021;SDS011;63583;49.976;20.182;2023-07-13T09:52:21;3.40;;;2.45;;
75021;SDS011;63583;49.976;20.182;2023-07-13T09:54:48;4.70;;;2.67;;
75021;SDS011;63583;49.976;20.182;2023-07-13T09:57:19;3.72;;;2.67;;
75021;SDS011;63583;49.976;20.182;2023-07-13T09:59:49;4.32;;;2.90;;
75021;SDS011;63583;49.976;20.182;2023-07-13T10:02:23;4.57;;;2.83;;
75021;SDS011;63583;49.976;20.182;2023-07-13T10:04:57;4.90;;;2.75;;
75021;SDS011;63583;49.976;20.182;2023-07-13T10:07:25;5.40;;;2.47;;
75021;SDS011;63583;49.976;20.182;2023-07-13T10:09:54;4.75;;;3.00;;
75021;SDS011;63583;49.976;20.182;2023-07-13T10:12:21;4.40;;;2.85;;
75021;SDS011;63583;49.976;20.182;2023-07-13T10:14:54;5.35;;;2.90;;
75021;SDS011;63583;49.976;20.182;2023-07-13T10:17:26;4.47;;;2.60;;
75021;SDS011;63583;49.976;20.182;2023-07-13T10:19:58;5.75;;;3.00;;
75021;SDS011;63583;49.976;20.182;2023-07-13T10:22:30;4.10;;;2.70;;
75021;SDS011;63583;49.976;20.182;2023-07-13T10:24:58;3.38;;;2.40;;
75021;SDS011;63583;49.976;20.182;2023-07-13T10:27:29;4.53;;;2.53;;
75021;SDS011;63583;49.976;20.182;2023-07-13T10:30:41;10.25;;;5.13;;
75021;SDS011;63583;49.976;20.182;2023-07-13T10:32:57;33.80;;;13.60;;
75021;SDS011;63583;49.976;20.182;2023-07-13T10:35:24;46.30;;;16.35;;
75021;SDS011;63583;49.976;20.182;2023-07-13T10:38:06;31.05;;;13.93;;
75021;SDS011;63583;49.976;20.182;2023-07-13T10:40:40;14.10;;;6.63;;
75021;SDS011;63583;49.976;20.182;2023-07-13T10:43:17;8.88;;;4.32;;
75021;SDS011;63583;49.976;20.182;2023-07-13T10:45:47;4.70;;;3.60;;
75021;SDS011;63583;49.976;20.182;2023-07-13T10:48:16;6.03;;;3.10;;
75021;SDS011;63583;49.976;20.182;2023-07-13T10:50:44;6.57;;;3.60;;
75021;SDS011;63583;49.976;20.182;2023-07-13T10:53:20;5.18;;;3.28;;
75021;SDS011;63583;49.976;20.182;2023-07-13T10:56:01;5.90;;;3.85;;
75021;SDS011;63583;49.976;20.182;2023-07-13T10:58:50;6.72;;;5.15;;
75021;SDS011;63583;49.976;20.182;2023-07-13T11:01:51;7.75;;;5.28;;
75021;SDS011;63583;49.976;20.182;2023-07-13T11:04:41;7.32;;;5.35;;
75021;SDS011;63583;49.976;20.182;2023-07-13T11:07:11;6.65;;;4.65;;
75021;SDS011;63583;49.976;20.182;2023-07-13T11:09:49;8.30;;;4.38;;
75021;SDS011;63583;49.976;20.182;2023-07-13T11:20:31;4.97;;;3.30;;
75021;SDS011;63583;49.976;20.182;2023-07-13T11:25:38;4.57;;;3.30;;
75021;SDS011;63583;49.976;20.182;2023-07-13T11:30:38;5.30;;;3.50;;
75021;SDS011;63583;49.976;20.182;2023-07-13T11:36:04;5.40;;;3.58;;
75021;SDS011;63583;49.976;20.182;2023-07-13T11:38:40;8.07;;;3.80;;
75021;SDS011;63583;49.976;20.182;2023-07-13T11:41:21;5.15;;;3.65;;
75021;SDS011;63583;49.976;20.182;2023-07-13T11:43:51;5.18;;;3.70;;
75021;SDS011;63583;49.976;20.182;2023-07-13T11:46:23;5.78;;;3.75;;
75021;SDS011;63583;49.976;20.182;2023-07-13T11:48:51;5.38;;;3.22;;
75021;SDS011;63583;49.976;20.182;2023-07-13T11:51:25;4.95;;;3.00;;
75021;SDS011;63583;49.976;20.182;2023-07-13T11:53:54;5.18;;;2.40;;
75021;SDS011;63583;49.976;20.182;2023-07-13T11:56:22;4.97;;;2.25;;
75021;SDS011;63583;49.976;20.182;2023-07-13T11:58:50;4.35;;;2.00;;
75021;SDS011;63583;49.976;20.182;2023-07-13T12:01:21;4.75;;;2.22;;
75021;SDS011;63583;49.976;20.182;2023-07-13T12:03:49;3.42;;;1.95;;
75021;SDS011;63583;49.976;20.182;2023-07-13T12:06:24;4.80;;;2.03;;
75021;SDS011;63583;49.976;20.182;2023-07-13T12:08:55;5.10;;;2.17;;
75021;SDS011;63583;49.976;20.182;2023-07-13T12:11:25;3.45;;;1.75;;
75021;SDS011;63583;49.976;20.182;2023-07-13T12:13:52;5.93;;;3.20;;
75021;SDS011;63583;49.976;20.182;2023-07-13T12:16:28;5.28;;;3.40;;
75021;SDS011;63583;49.976;20.182;2023-07-13T12:21:36;4.75;;;3.22;;
75021;SDS011;63583;49.976;20.182;2023-07-13T12:24:03;4.38;;;3.22;;
75021;SDS011;63583;49.976;20.182;2023-07-13T12:26:30;5.95;;;3.65;;
75021;SDS011;63583;49.976;20.182;2023-07-13T12:28:59;6.28;;;3.75;;
75021;SDS011;63583;49.976;20.182;2023-07-13T12:33:58;6.95;;;3.95;;
75021;SDS011;63583;49.976;20.182;2023-07-13T12:36:23;8.60;;;3.45;;
75021;SDS011;63583;49.976;20.182;2023-07-13T12:38:49;6.45;;;3.90;;
75021;SDS011;63583;49.976;20.182;2023-07-13T12:41:16;7.93;;;3.83;;
75021;SDS011;63583;49.976;20.182;2023-07-13T12:43:42;7.82;;;3.97;;
75021;SDS011;63583;49.976;20.182;2023-07-13T12:46:17;5.82;;;3.35;;
75021;SDS011;63583;49.976;20.182;2023-07-13T12:48:50;6.63;;;3.45;;
75021;SDS011;63583;49.976;20.182;2023-07-13T12:51:21;6.40;;;3.28;;
75021;SDS011;63583;49.976;20.182;2023-07-13T12:53:49;8.32;;;3.38;;
75021;SDS011;63583;49.976;20.182;2023-07-13T12:56:22;5.25;;;2.90;;
75021;SDS011;63583;49.976;20.182;2023-07-13T12:58:50;5.40;;;2.97;;
75021;SDS011;63583;49.976;20.182;2023-07-13T13:01:23;5.40;;;3.17;;
75021;SDS011;63583;49.976;20.182;2023-07-13T13:03:55;6.45;;;3.30;;
75021;SDS011;63583;49.976;20.182;2023-07-13T13:06:22;5.65;;;3.28;;
75021;SDS011;63583;49.976;20.182;2023-07-13T13:08:50;6.85;;;3.78;;
75021;SDS011;63583;49.976;20.182;2023-07-13T13:11:18;5.03;;;3.13;;
75021;SDS011;63583;49.976;20.182;2023-07-13T13:13:45;4.13;;;2.72;;
75021;SDS011;63583;49.976;20.182;2023-07-13T13:16:12;5.22;;;3.13;;
75021;SDS011;63583;49.976;20.182;2023-07-13T13:18:45;4.80;;;2.88;;
75021;SDS011;63583;49.976;20.182;2023-07-13T13:21:11;5.53;;;3.50;;
75021;SDS011;63583;49.976;20.182;2023-07-13T13:23:37;5.80;;;3.30;;
75021;SDS011;63583;49.976;20.182;2023-07-13T13:26:03;8.52;;;3.40;;
75021;SDS011;63583;49.976;20.182;2023-07-13T13:28:30;4.60;;;3.20;;
75021;SDS011;63583;49.976;20.182;2023-07-13T13:30:57;5.30;;;3.30;;
75021;SDS011;63583;49.976;20.182;2023-07-13T13:33:23;5.07;;;3.63;;
75021;SDS011;63583;49.976;20.182;2023-07-13T13:35:48;5.32;;;3.70;;
75021;SDS011;63583;49.976;20.182;2023-07-13T13:38:16;7.20;;;4.22;;
75021;SDS011;63583;49.976;20.182;2023-07-13T13:40:44;6.93;;;3.72;;
75021;SDS011;63583;49.976;20.182;2023-07-13T13:43:14;7.97;;;4.15;;
75021;SDS011;63583;49.976;20.182;2023-07-13T13:45:44;6.28;;;3.80;;
75021;SDS011;63583;49.976;20.182;2023-07-13T13:48:15;5.55;;;3.78;;
75021;SDS011;63583;49.976;20.182;2023-07-13T13:50:42;5.60;;;4.10;;
75021;SDS011;63583;49.976;20.182;2023-07-13T13:53:12;6.32;;;4.00;;
75021;SDS011;63583;49.976;20.182;2023-07-13T13:55:38;5.32;;;3.70;;
75021;SDS011;63583;49.976;20.182;2023-07-13T13:58:07;7.22;;;4.13;;
75021;SDS011;63583;49.976;20.182;2023-07-13T14:00:34;7.03;;;3.95;;
75021;SDS011;63583;49.976;20.182;2023-07-13T14:03:01;6.88;;;3.88;;
75021;SDS011;63583;49.976;20.182;2023-07-13T14:05:27;5.22;;;2.88;;
75021;SDS011;63583;49.976;20.182;2023-07-13T14:07:53;4.95;;;3.08;;
75021;SDS011;63583;49.976;20.182;2023-07-13T14:10:19;5.18;;;2.90;;
75021;SDS011;63583;49.976;20.182;2023-07-13T14:12:47;7.03;;;3.25;;
75021;SDS011;63583;49.976;20.182;2023-07-13T14:15:26;5.32;;;3.38;;
75021;SDS011;63583;49.976;20.182;2023-07-13T14:17:54;4.50;;;3.10;;
75021;SDS011;63583;49.976;20.182;2023-07-13T14:20:20;5.55;;;3.03;;
75021;SDS011;63583;49.976;20.182;2023-07-13T14:22:49;4.40;;;2.72;;
75021;SDS011;63583;49.976;20.182;2023-07-13T14:25:15;4.97;;;2.80;;
75021;SDS011;63583;49.976;20.182;2023-07-13T14:27:43;3.30;;;2.20;;
75021;SDS011;63583;49.976;20.182;2023-07-13T14:30:13;3.83;;;2.15;;
75021;SDS011;63583;49.976;20.182;2023-07-13T14:32:40;3.40;;;2.13;;
75021;SDS011;63583;49.976;20.182;2023-07-13T14:35:10;3.90;;;2.40;;
75021;SDS011;63583;49.976;20.182;2023-07-13T14:37:40;3.10;;;2.20;;
75021;SDS011;63583;49.976;20.182;2023-07-13T14:40:14;2.83;;;1.98;;
75021;SDS011;63583;49.976;20.182;2023-07-13T14:42:47;2.83;;;1.70;;
75021;SDS011;63583;49.976;20.182;2023-07-13T14:45:17;4.45;;;2.03;;
75021;SDS011;63583;49.976;20.182;2023-07-13T14:47:45;3.17;;;2.15;;
75021;SDS011;63583;49.976;20.182;2023-07-13T14:50:13;2.35;;;1.67;;
75021;SDS011;63583;49.976;20.182;2023-07-13T14:52:39;3.00;;;2.00;;
75021;SDS011;63583;49.976;20.182;2023-07-13T14:55:09;3.65;;;2.10;;
75021;SDS011;63583;49.976;20.182;2023-07-13T14:57:36;3.83;;;2.42;;
75021;SDS011;63583;49.976;20.182;2023-07-13T15:00:03;3.58;;;2.42;;
75021;SDS011;63583;49.976;20.182;2023-07-13T15:02:34;3.90;;;2.53;;
75021;SDS011;63583;49.976;20.182;2023-07-13T15:05:05;4.28;;;2.42;;
75021;SDS011;63583;49.976;20.182;2023-07-13T15:07:38;4.63;;;2.53;;
75021;SDS011;63583;49.976;20.182;2023-07-13T15:10:14;3.92;;;2.70;;
75021;SDS011;63583;49.976;20.182;2023-07-13T15:12:39;4.78;;;3.15;;
75021;SDS011;63583;49.976;20.182;2023-07-13T15:15:05;4.53;;;3.03;;